Time;durP1;ratioP1;P1;durP2;ratioP2;P2;SDS_P1;SDS_P2;PMS_P1;PMS_P2;Temp;Humidity;BMP_temperature;BMP_pressure;BME280_temperature;BME280_humidity;BME280_pressure;Samples;Min_cycle;Max_cycle;Signal;HPM_P1;HPM_P2
2022/11/02 00:01:02;;;;;;;1.40;1.30;;;11.40;97.30;;;;;;5021948;28;20418;-84
2022/11/02 00:03:28;;;;;;;1.20;1.10;;;11.40;97.30;;;;;;5020936;28;20489;-84
2022/11/02 00:05:56;;;;;;;1.67;1.50;;;11.50;97.30;;;;;;5025759;28;20427;-80
2022/11/02 00:08:21;;;;;;;1.10;1.00;;;11.50;97.30;;;;;;5028957;28;20641;-85
2022/11/02 00:10:47;;;;;;;2.20;1.47;;;11.40;97.30;;;;;;5033751;28;20418;-85
2022/11/02 00:13:12;;;;;;;1.50;1.40;;;11.30;97.30;;;;;;5032866;28;20705;-85
2022/11/02 00:15:38;;;;;;;2.23;1.87;;;11.20;97.30;;;;;;5032644;28;20233;-83
2022/11/02 00:18:12;;;;;;;1.20;1.10;;;11.00;97.30;;;;;;5032932;28;20526;-85
2022/11/02 00:20:40;;;;;;;5.50;2.13;;;10.90;97.30;;;;;;5033432;28;20642;-85
2022/11/02 00:23:09;;;;;;;1.50;1.40;;;10.70;97.30;;;;;;5033006;28;20527;-84
2022/11/02 00:25:38;;;;;;;2.40;1.90;;;10.60;97.30;;;;;;5033200;28;20422;-85
2022/11/02 00:28:04;;;;;;;3.00;1.77;;;10.60;97.30;;;;;;5034909;28;20795;-84
2022/11/02 00:30:30;;;;;;;1.60;1.50;;;10.50;97.30;;;;;;5013983;28;20430;-85
2022/11/02 00:32:56;;;;;;;4.60;2.20;;;10.40;97.30;;;;;;5014197;28;20268;-84
2022/11/02 00:35:21;;;;;;;3.83;1.97;;;10.30;97.30;;;;;;5023170;28;20175;-84
2022/11/02 00:37:47;;;;;;;1.53;1.37;;;10.20;97.30;;;;;;5035376;28;20444;-85
2022/11/02 00:40:12;;;;;;;1.83;1.77;;;10.20;97.30;;;;;;5014363;28;20180;-85
2022/11/02 00:42:38;;;;;;;9.90;2.60;;;10.10;97.30;;;;;;5029219;28;21136;-84
2022/11/02 00:45:04;;;;;;;1.50;1.40;;;10.00;97.30;;;;;;5050958;28;20277;-85
2022/11/02 00:47:33;;;;;;;3.13;1.73;;;9.90;97.30;;;;;;5050042;28;20279;-85
2022/11/02 00:49:58;;;;;;;1.40;1.30;;;9.80;97.30;;;;;;5033697;28;20406;-83
2022/11/02 00:52:24;;;;;;;2.63;2.20;;;9.70;97.30;;;;;;5020660;28;20407;-81
2022/11/02 00:54:49;;;;;;;3.80;2.00;;;9.60;97.30;;;;;;5032799;28;20180;-85
2022/11/02 00:57:15;;;;;;;2.20;1.30;;;9.50;97.30;;;;;;5032710;28;20200;-84
2022/11/02 00:59:40;;;;;;;1.40;1.30;;;9.50;97.30;;;;;;5050307;28;20207;-85
2022/11/02 01:02:06;;;;;;;1.00;0.90;;;9.40;97.30;;;;;;5029163;28;20181;-84
2022/11/02 01:04:31;;;;;;;1.30;1.20;;;9.30;97.30;;;;;;5040043;28;20462;-80
2022/11/02 01:06:57;;;;;;;1.83;1.73;;;9.20;97.30;;;;;;5032507;28;20581;-85
2022/11/02 01:09:23;;;;;;;1.33;1.23;;;9.20;97.30;;;;;;5032034;28;20184;-81
2022/11/02 01:11:48;;;;;;;1.37;1.27;;;9.10;97.30;;;;;;5031170;28;20208;-84
2022/11/02 01:14:14;;;;;;;1.47;1.37;;;9.00;97.30;;;;;;5033156;28;20414;-85
2022/11/02 01:16:40;;;;;;;1.87;1.27;;;8.90;97.30;;;;;;5029362;28;20209;-84
2022/11/02 01:19:06;;;;;;;3.93;2.63;;;8.80;97.30;;;;;;5040082;23;20231;-87
2022/11/02 01:21:31;;;;;;;3.20;1.50;;;8.70;97.30;;;;;;5024014;28;20330;-86
2022/11/02 01:23:57;;;;;;;4.53;2.23;;;8.60;97.30;;;;;;5027743;28;20560;-86
2022/11/02 01:26:23;;;;;;;1.10;1.00;;;8.50;97.30;;;;;;5022211;28;20184;-87
2022/11/02 01:28:48;;;;;;;1.50;1.40;;;8.50;97.30;;;;;;5031648;28;20199;-86
2022/11/02 01:31:14;;;;;;;2.20;2.00;;;8.40;97.30;;;;;;5032518;28;20179;-86
2022/11/02 01:33:46;;;;;;;1.20;1.10;;;8.40;97.30;;;;;;5036519;28;20556;-88
2022/11/02 01:36:13;;;;;;;1.57;1.50;;;8.40;97.30;;;;;;5033296;28;20564;-88
2022/11/02 01:38:39;;;;;;;1.23;1.13;;;8.30;97.30;;;;;;5027663;28;20526;-89
2022/11/02 01:41:04;;;;;;;1.57;1.50;;;8.30;97.30;;;;;;5025725;28;20674;-89
2022/11/02 01:43:33;;;;;;;1.37;1.27;;;8.20;97.30;;;;;;5032853;28;20206;-88
2022/11/02 01:46:11;;;;;;;1.60;1.50;;;8.10;97.30;;;;;;5041415;28;20172;-92
2022/11/02 01:48:47;;;;;;;1.20;1.10;;;8.10;97.30;;;;;;5045271;28;20429;-89
2022/11/02 01:51:21;;;;;;;1.33;1.23;;;8.10;97.30;;;;;;5056900;28;20476;-91
2022/11/02 01:53:50;;;;;;;1.77;1.43;;;8.10;97.30;;;;;;5038438;28;20414;-88
2022/11/02 01:56:19;;;;;;;1.73;1.63;;;8.10;97.30;;;;;;5032746;28;20418;-88
2022/11/02 01:58:50;;;;;;;1.33;1.23;;;8.10;97.30;;;;;;5018987;28;20956;-88
2022/11/02 02:01:16;;;;;;;1.30;1.10;;;8.10;97.30;;;;;;5032286;28;20422;-88
2022/11/02 02:03:42;;;;;;;3.70;1.27;;;8.10;97.30;;;;;;5032647;28;20477;-89
2022/11/02 02:06:11;;;;;;;1.20;1.10;;;8.00;97.30;;;;;;5034672;28;20237;-88
2022/11/02 02:08:49;;;;;;;1.90;1.80;;;8.00;97.30;;;;;;5036548;28;20843;-90
2022/11/02 02:11:33;;;;;;;1.63;1.30;;;8.00;97.30;;;;;;5053899;28;20479;-89
2022/11/02 02:14:09;;;;;;;1.53;1.30;;;8.00;97.30;;;;;;5037955;28;20860;-87
2022/11/02 02:17:01;;;;;;;1.50;1.40;;;8.00;97.30;;;;;;5027652;28;20430;-88
2022/11/02 02:19:45;;;;;;;1.30;1.20;;;7.90;97.30;;;;;;5016590;28;20505;-88
2022/11/02 02:22:25;;;;;;;1.10;1.00;;;7.90;97.30;;;;;;5035520;28;20425;-88
2022/11/02 02:25:04;;;;;;;1.40;1.30;;;7.90;97.30;;;;;;5042289;28;20553;-85
2022/11/02 02:28:05;;;;;;;1.63;1.53;;;7.80;97.30;;;;;;5039580;28;20437;-85
2022/11/02 02:30:39;;;;;;;1.83;1.73;;;7.80;97.30;;;;;;5042695;28;20464;-89
2022/11/02 02:33:15;;;;;;;1.30;1.20;;;7.70;97.30;;;;;;5059569;28;20544;-88
2022/11/02 02:35:48;;;;;;;3.10;1.73;;;7.70;97.30;;;;;;5055780;28;20494;-90
2022/11/02 02:38:27;;;;;;;1.30;1.20;;;7.70;97.30;;;;;;5049435;28;20995;-86
2022/11/02 02:41:24;;;;;;;3.60;2.10;;;7.70;97.30;;;;;;5044591;28;20418;-89
2022/11/02 02:43:53;;;;;;;4.10;2.13;;;7.70;97.30;;;;;;5050569;28;20569;-88
2022/11/02 02:46:33;;;;;;;2.13;1.97;;;7.70;97.30;;;;;;5041854;28;20418;-86
2022/11/02 02:48:59;;;;;;;1.70;1.60;;;7.70;97.30;;;;;;5049852;28;20667;-89
2022/11/02 02:51:28;;;;;;;1.50;1.20;;;7.70;97.30;;;;;;5049697;28;20414;-87
2022/11/02 02:54:14;;;;;;;4.70;1.50;;;7.80;97.30;;;;;;5043368;28;20414;-87
2022/11/02 02:56:45;;;;;;;1.40;1.30;;;8.10;97.30;;;;;;5055946;28;20433;-85
2022/11/02 02:59:23;;;;;;;2.40;1.83;;;8.30;97.30;;;;;;5031067;28;20522;-86
2022/11/02 03:01:48;;;;;;;1.10;1.00;;;8.50;97.30;;;;;;5032874;28;20450;-85
2022/11/02 03:04:15;;;;;;;1.57;1.43;;;8.70;97.30;;;;;;5036422;28;20554;-86
2022/11/02 03:06:43;;;;;;;3.80;1.30;;;8.90;97.30;;;;;;5035549;28;20175;-85
2022/11/02 03:09:15;;;;;;;1.47;1.37;;;8.90;97.30;;;;;;5053563;28;20438;-84
2022/11/02 03:11:49;;;;;;;1.20;1.10;;;8.90;97.30;;;;;;5035121;28;20410;-87
2022/11/02 03:14:37;;;;;;;1.50;1.40;;;8.90;97.30;;;;;;5035424;28;20425;-86
2022/11/02 03:17:03;;;;;;;1.20;1.10;;;9.00;97.30;;;;;;5018887;28;20957;-85
2022/11/02 03:19:54;;;;;;;1.47;1.37;;;9.10;97.30;;;;;;5033874;28;20498;-85
2022/11/02 03:22:48;;;;;;;1.43;1.33;;;9.20;97.30;;;;;;5034645;28;20682;-85
2022/11/02 03:25:29;;;;;;;1.00;0.90;;;9.40;97.30;;;;;;5031394;28;20475;-86
2022/11/02 03:28:19;;;;;;;1.97;1.87;;;9.30;97.30;;;;;;5030319;28;20470;-86
2022/11/02 03:30:51;;;;;;;1.30;1.20;;;9.40;97.30;;;;;;5032228;28;20415;-87
2022/11/02 03:33:47;;;;;;;2.00;1.83;;;9.40;97.30;;;;;;5023881;28;20424;-87
2022/11/02 03:36:26;;;;;;;37.10;3.27;;;9.50;97.30;;;;;;5023275;28;20421;-87
2022/11/02 03:38:57;;;;;;;1.00;0.90;;;9.50;97.30;;;;;;5024021;28;20513;-86
2022/11/02 03:41:25;;;;;;;1.13;1.03;;;9.40;97.30;;;;;;5032261;28;20420;-88
2022/11/02 03:43:58;;;;;;;26.37;1.40;;;9.40;97.30;;;;;;5024063;28;20470;-86
2022/11/02 03:46:25;;;;;;;4.10;2.43;;;9.40;97.30;;;;;;5033999;28;20416;-86
2022/11/02 03:48:54;;;;;;;1.20;1.10;;;9.40;97.30;;;;;;5021019;28;20474;-85
2022/11/02 03:51:22;;;;;;;1.40;1.30;;;9.40;97.30;;;;;;5034659;28;20423;-85
2022/11/02 03:54:18;;;;;;;1.77;1.30;;;9.40;97.30;;;;;;5034295;28;20415;-87
2022/11/02 03:56:48;;;;;;;1.43;1.43;;;9.50;97.30;;;;;;5011588;28;20426;-86
2022/11/02 03:59:14;;;;;;;2.43;2.23;;;9.50;97.30;;;;;;5032722;28;20443;-86
2022/11/02 04:01:42;;;;;;;1.47;1.37;;;9.50;97.30;;;;;;5032094;28;20557;-87
2022/11/02 04:04:08;;;;;;;1.10;1.00;;;9.40;97.30;;;;;;5033426;28;20208;-83
2022/11/02 04:06:34;;;;;;;1.90;1.80;;;9.40;97.30;;;;;;5033911;28;20418;-84
2022/11/02 04:09:00;;;;;;;1.97;1.87;;;9.30;97.30;;;;;;5032473;28;20192;-86
2022/11/02 04:19:39;;;;;;;1.13;1.10;;;9.30;97.30;;;;;;5047177;28;20461;-86
2022/11/02 04:27:33;;;;;;;1.10;1.00;;;9.30;97.30;;;;;;5050981;28;20471;-86
2022/11/02 04:29:58;;;;;;;2.03;1.90;;;9.30;97.30;;;;;;5028222;28;20422;-85
2022/11/02 04:35:11;;;;;;;1.47;1.37;;;9.40;97.30;;;;;;5054425;28;20191;-85
2022/11/02 04:40:27;;;;;;;2.40;2.00;;;9.40;97.30;;;;;;5054274;28;20229;-85
2022/11/02 04:42:53;;;;;;;1.30;1.20;;;9.40;97.30;;;;;;5037051;28;20505;-84
2022/11/02 04:45:18;;;;;;;1.27;1.17;;;9.40;97.30;;;;;;5037005;28;20207;-86
2022/11/02 04:47:44;;;;;;;1.57;1.47;;;9.40;97.30;;;;;;5036842;28;20213;-86
2022/11/02 04:50:11;;;;;;;3.03;2.70;;;9.50;97.30;;;;;;5036120;28;20558;-85
2022/11/02 04:52:37;;;;;;;1.10;1.00;;;9.50;97.30;;;;;;5032043;28;20180;-86
2022/11/02 04:55:03;;;;;;;1.07;1.00;;;9.60;97.30;;;;;;5034525;28;20417;-86
2022/11/02 04:57:28;;;;;;;6.33;1.90;;;9.60;97.30;;;;;;5031574;28;20271;-86
2022/11/02 04:59:54;;;;;;;2.27;1.90;;;9.60;97.30;;;;;;5031620;28;20176;-86
2022/11/02 05:02:19;;;;;;;1.00;0.90;;;9.70;97.30;;;;;;5034498;28;20203;-85
2022/11/02 05:04:45;;;;;;;1.23;1.10;;;9.70;97.30;;;;;;5033690;28;20215;-86
2022/11/02 05:07:10;;;;;;;1.10;1.00;;;9.80;97.30;;;;;;5023716;28;20196;-85
2022/11/02 05:09:36;;;;;;;6.30;2.40;;;9.90;97.30;;;;;;5033923;28;20183;-86
2022/11/02 05:12:04;;;;;;;7.80;2.50;;;9.80;97.30;;;;;;5034314;28;20263;-84
2022/11/02 05:14:37;;;;;;;1.87;1.80;;;9.90;97.30;;;;;;5033712;28;20189;-86
2022/11/02 05:17:05;;;;;;;1.27;1.20;;;9.90;97.30;;;;;;5029916;28;20453;-83
2022/11/02 05:19:39;;;;;;;1.30;1.20;;;10.00;97.30;;;;;;5036697;28;20465;-85
2022/11/02 05:22:05;;;;;;;1.20;1.10;;;10.00;97.30;;;;;;5031441;28;20441;-85
2022/11/02 05:24:33;;;;;;;1.37;1.27;;;9.90;97.30;;;;;;5037555;28;20464;-84
2022/11/02 05:27:01;;;;;;;1.20;1.10;;;10.00;97.30;;;;;;5037655;28;20180;-86
2022/11/02 05:29:26;;;;;;;6.40;1.57;;;10.00;97.30;;;;;;5037021;28;20881;-85
2022/11/02 05:31:52;;;;;;;1.20;1.10;;;10.00;97.30;;;;;;5037221;28;20422;-82
2022/11/02 05:34:17;;;;;;;1.77;1.63;;;10.10;97.30;;;;;;5036075;28;20184;-84
2022/11/02 05:36:46;;;;;;;1.10;1.00;;;10.10;97.30;;;;;;5037246;28;20225;-85
2022/11/02 05:39:16;;;;;;;1.10;1.00;;;10.20;97.30;;;;;;5027890;28;20207;-85
2022/11/02 05:41:42;;;;;;;1.93;1.83;;;10.20;97.30;;;;;;5034419;28;20571;-84
2022/11/02 05:44:08;;;;;;;1.10;1.00;;;10.10;97.30;;;;;;5034321;28;20973;-84
2022/11/02 05:46:33;;;;;;;1.10;1.00;;;10.10;97.30;;;;;;5037236;28;20267;-83
2022/11/02 05:48:59;;;;;;;1.10;1.00;;;10.10;97.30;;;;;;5037854;28;20605;-85
2022/11/02 05:51:24;;;;;;;8.47;2.97;;;10.00;97.30;;;;;;5040609;28;20194;-84
2022/11/02 05:53:50;;;;;;;1.10;1.00;;;10.10;97.30;;;;;;5054393;28;20179;-87
2022/11/02 05:56:15;;;;;;;1.13;1.03;;;10.10;97.30;;;;;;5056380;28;20190;-85
2022/11/02 05:58:41;;;;;;;1.40;1.30;;;10.10;97.30;;;;;;5048729;28;20497;-84
2022/11/02 06:01:09;;;;;;;1.63;1.53;;;10.10;97.30;;;;;;5034077;28;20237;-86
2022/11/02 06:03:35;;;;;;;1.70;1.60;;;10.10;97.30;;;;;;5023318;28;20211;-86
2022/11/02 06:06:04;;;;;;;2.80;2.37;;;10.10;97.30;;;;;;5028917;28;20962;-85
2022/11/02 06:08:37;;;;;;;1.27;1.17;;;10.20;97.30;;;;;;5031009;28;20454;-88
2022/11/02 06:11:07;;;;;;;5.50;1.73;;;10.30;97.30;;;;;;5031820;28;20422;-87
2022/11/02 06:13:33;;;;;;;1.73;1.63;;;10.30;97.30;;;;;;5032809;28;20433;-86
2022/11/02 06:15:59;;;;;;;1.10;1.00;;;10.30;97.30;;;;;;5032550;28;20426;-87
2022/11/02 06:18:25;;;;;;;1.40;1.30;;;10.30;97.30;;;;;;5025689;28;20478;-87
2022/11/02 06:20:51;;;;;;;35.67;1.63;;;10.30;97.30;;;;;;5031875;28;20861;-85
2022/11/02 06:23:17;;;;;;;1.37;1.27;;;10.40;97.30;;;;;;5030846;28;20183;-86
2022/11/02 06:25:48;;;;;;;1.30;1.20;;;10.40;97.30;;;;;;5031302;28;20172;-87
2022/11/02 06:28:14;;;;;;;1.67;1.60;;;10.40;97.30;;;;;;5031260;28;20438;-89
2022/11/02 06:30:41;;;;;;;9.57;3.57;;;10.50;97.30;;;;;;5030999;28;20423;-86
2022/11/02 06:33:07;;;;;;;1.83;1.27;;;10.50;97.30;;;;;;5030828;28;20214;-86
2022/11/02 06:35:32;;;;;;;1.00;0.90;;;10.50;97.30;;;;;;5031678;28;20720;-87
2022/11/02 06:37:58;;;;;;;1.23;1.13;;;10.60;97.30;;;;;;5031839;28;20350;-87
2022/11/02 06:40:23;;;;;;;1.70;1.60;;;10.60;97.30;;;;;;5031878;28;20238;-87
2022/11/02 06:42:55;;;;;;;1.13;1.10;;;10.60;97.30;;;;;;5031504;28;20679;-86
2022/11/02 06:45:20;;;;;;;1.20;1.10;;;10.70;97.30;;;;;;5032180;28;20285;-86
2022/11/02 06:47:47;;;;;;;1.40;1.40;;;10.70;97.30;;;;;;5050351;28;20466;-86
2022/11/02 06:50:13;;;;;;;1.00;0.90;;;10.70;97.30;;;;;;5031446;28;20658;-86
2022/11/02 06:52:43;;;;;;;1.17;1.10;;;10.70;97.30;;;;;;5022101;28;20521;-86
2022/11/02 06:55:09;;;;;;;1.93;1.83;;;10.70;97.30;;;;;;5035468;28;20466;-86
2022/11/02 06:57:35;;;;;;;16.27;4.27;;;10.70;97.30;;;;;;5035727;28;20517;-86
2022/11/02 07:00:03;;;;;;;1.07;0.97;;;10.70;97.30;;;;;;5034955;28;20418;-87
2022/11/02 07:02:29;;;;;;;2.07;1.63;;;10.80;97.30;;;;;;5036126;28;20520;-87
2022/11/02 07:04:55;;;;;;;1.03;0.93;;;10.80;97.30;;;;;;5035380;28;20544;-86
2022/11/02 07:07:21;;;;;;;6.77;1.40;;;10.80;97.30;;;;;;5027774;28;20481;-85
2022/11/02 07:09:47;;;;;;;1.37;1.10;;;10.80;97.30;;;;;;5030729;28;20501;-88
2022/11/02 07:12:13;;;;;;;1.17;1.07;;;10.80;97.30;;;;;;5035496;28;20426;-86
2022/11/02 07:14:38;;;;;;;1.10;1.00;;;10.90;97.30;;;;;;5035174;28;20184;-87
2022/11/02 07:17:06;;;;;;;1.63;1.53;;;11.00;97.30;;;;;;5053426;28;20266;-87
2022/11/02 07:25:07;;;;;;;23.83;1.40;;;11.20;97.30;;;;;;5013370;28;20498;-92
2022/11/02 07:27:39;;;;;;;1.20;1.10;;;11.30;97.30;;;;;;5012437;28;20504;-93
2022/11/02 07:30:07;;;;;;;0.90;0.83;;;11.40;97.30;;;;;;5011205;28;20444;-91
2022/11/02 07:32:40;;;;;;;1.67;1.57;;;11.50;97.30;;;;;;5016809;28;20417;-96
2022/11/02 07:35:08;;;;;;;1.87;1.77;;;11.60;97.30;;;;;;5013728;28;20425;-91
2022/11/02 07:37:36;;;;;;;4.70;1.70;;;11.70;97.30;;;;;;4994714;28;20864;-91
2022/11/02 07:40:07;;;;;;;1.17;1.07;;;11.80;97.30;;;;;;4994276;28;20433;-89
2022/11/02 07:42:33;;;;;;;1.10;1.00;;;11.90;97.30;;;;;;4995317;28;20463;-92
2022/11/02 07:44:58;;;;;;;1.00;0.97;;;11.90;97.30;;;;;;5001247;28;20465;-91
2022/11/02 07:47:24;;;;;;;3.37;1.97;;;11.90;97.30;;;;;;4994617;28;20437;-91
2022/11/02 07:49:50;;;;;;;2.70;2.50;;;11.90;97.30;;;;;;4993730;28;20200;-91
2022/11/02 07:52:15;;;;;;;1.20;1.10;;;12.00;97.30;;;;;;4994874;28;20178;-91
2022/11/02 07:54:41;;;;;;;5.40;1.13;;;12.10;97.30;;;;;;4993578;28;20188;-92
2022/11/02 07:57:06;;;;;;;1.07;0.97;;;12.20;97.30;;;;;;4993394;28;20583;-90
2022/11/02 07:59:32;;;;;;;1.27;1.17;;;12.40;97.30;;;;;;4994219;28;20228;-93
2022/11/02 08:01:58;;;;;;;1.57;1.47;;;12.50;97.30;;;;;;4996430;28;20200;-92
2022/11/02 08:04:23;;;;;;;1.30;1.20;;;12.60;97.30;;;;;;4994729;28;20202;-92
2022/11/02 08:06:49;;;;;;;3.63;2.70;;;12.70;97.30;;;;;;4994986;28;20588;-92
2022/11/02 08:09:14;;;;;;;1.73;1.63;;;12.80;97.30;;;;;;5002124;28;20536;-92
2022/11/02 08:11:40;;;;;;;4.83;2.37;;;13.00;97.30;;;;;;5001121;28;20198;-93
2022/11/02 08:14:06;;;;;;;4.07;2.20;;;13.10;97.30;;;;;;4995716;28;20202;-92
2022/11/02 08:16:32;;;;;;;4.50;2.13;;;13.30;97.30;;;;;;4997202;28;20495;-93
2022/11/02 08:18:58;;;;;;;1.07;0.97;;;13.30;97.30;;;;;;5000352;28;21049;-91
2022/11/02 08:21:27;;;;;;;2.70;2.10;;;13.30;97.30;;;;;;5004794;28;20232;-92
2022/11/02 08:23:55;;;;;;;1.83;1.73;;;13.40;97.30;;;;;;5001494;28;20225;-92
2022/11/02 08:26:20;;;;;;;1.80;1.70;;;13.50;97.30;;;;;;4997402;28;20421;-93
2022/11/02 08:28:52;;;;;;;1.47;1.30;;;13.40;97.30;;;;;;5000005;28;20471;-94
2022/11/02 08:31:20;;;;;;;1.90;1.80;;;13.30;97.30;;;;;;4998957;28;20206;-92
2022/11/02 08:34:20;;;;;;;1.30;1.20;;;13.30;97.30;;;;;;4995886;28;20436;-93
2022/11/02 08:36:51;;;;;;;1.43;1.33;;;13.30;97.30;;;;;;4999844;28;20421;-93
2022/11/02 08:39:17;;;;;;;2.20;1.23;;;13.50;97.30;;;;;;4994854;28;20432;-93
2022/11/02 08:41:43;;;;;;;1.10;1.07;;;13.70;97.30;;;;;;4997256;28;20557;-92
2022/11/02 08:44:13;;;;;;;9.27;1.97;;;13.80;97.30;;;;;;4998321;28;20198;-91
2022/11/02 08:46:39;;;;;;;4.60;1.60;;;14.00;97.30;;;;;;4998514;28;20174;-92
2022/11/02 08:49:05;;;;;;;2.90;2.30;;;14.10;97.30;;;;;;4995601;28;20421;-93
2022/11/02 08:51:30;;;;;;;6.10;1.50;;;14.20;97.30;;;;;;5001550;28;20204;-92
2022/11/02 08:53:56;;;;;;;1.30;1.20;;;14.30;97.30;;;;;;4998390;28;20189;-92
2022/11/02 08:56:31;;;;;;;1.80;1.33;;;14.40;97.30;;;;;;5003479;28;20182;-92
2022/11/02 08:58:56;;;;;;;10.87;1.93;;;14.40;97.30;;;;;;4998467;28;20280;-91
2022/11/02 09:01:22;;;;;;;1.73;1.67;;;14.30;97.30;;;;;;4995774;28;20472;-93
2022/11/02 09:03:48;;;;;;;6.77;1.67;;;14.30;97.30;;;;;;4995807;28;20257;-92
2022/11/02 09:06:16;;;;;;;1.67;1.60;;;14.40;97.30;;;;;;5010557;28;20183;-93
2022/11/02 09:08:41;;;;;;;1.93;0.93;;;14.40;97.30;;;;;;5007124;28;20177;-94
2022/11/02 09:11:07;;;;;;;1.00;0.90;;;14.50;97.30;;;;;;4998781;28;20441;-93
2022/11/02 09:13:33;;;;;;;1.10;1.00;;;14.50;97.30;;;;;;4996249;28;20178;-92
2022/11/02 09:15:59;;;;;;;3.00;2.13;;;14.60;97.30;;;;;;4995721;28;20185;-92
2022/11/02 09:18:25;;;;;;;2.10;1.20;;;14.70;97.30;;;;;;4995833;28;20186;-92
2022/11/02 09:20:51;;;;;;;4.63;2.33;;;14.80;97.30;;;;;;5004801;28;20442;-92
2022/11/02 09:23:18;;;;;;;1.30;1.20;;;14.90;97.30;;;;;;5000145;28;20475;-93
2022/11/02 09:25:54;;;;;;;1.37;1.27;;;14.90;97.30;;;;;;5007294;28;20221;-93
2022/11/02 09:32:16;;;;;;;1.10;1.00;;;15.00;97.30;;;;;;5015648;28;20416;-94
2022/11/02 09:34:55;;;;;;;2.40;2.13;;;15.00;97.10;;;;;;5014839;28;20423;-96
2022/11/02 09:37:20;;;;;;;1.43;1.33;;;15.00;96.60;;;;;;5012574;28;20412;-93
2022/11/02 09:39:46;;;;;;;1.40;1.30;;;15.10;96.70;;;;;;5001839;28;20436;-92
2022/11/02 09:42:21;;;;;;;1.00;0.90;;;15.00;95.90;;;;;;4998051;28;20181;-95
2022/11/02 09:44:58;;;;;;;3.47;1.50;;;15.00;96.00;;;;;;4996563;28;20205;-91
2022/11/02 09:47:26;;;;;;;1.37;1.27;;;15.10;96.10;;;;;;4998313;28;20912;-93
2022/11/02 09:49:55;;;;;;;1.30;1.20;;;15.10;95.80;;;;;;5003358;28;20437;-95
2022/11/02 09:52:28;;;;;;;1.27;1.20;;;15.10;95.60;;;;;;5006096;28;20417;-94
2022/11/02 09:55:07;;;;;;;4.57;1.90;;;15.10;96.00;;;;;;5023216;28;20428;-92
2022/11/02 09:57:33;;;;;;;1.40;1.30;;;15.10;96.00;;;;;;5001799;28;20408;-92
2022/11/02 10:00:00;;;;;;;1.30;1.20;;;15.10;94.80;;;;;;4998347;28;20437;-91
2022/11/02 10:02:55;;;;;;;1.10;1.00;;;15.20;95.10;;;;;;4998106;28;20181;-94
2022/11/02 10:05:32;;;;;;;3.40;2.23;;;15.20;94.40;;;;;;5001069;28;21015;-92
2022/11/02 10:08:22;;;;;;;1.73;1.63;;;15.20;94.50;;;;;;5014328;28;20919;-92
2022/11/02 10:10:48;;;;;;;2.50;2.30;;;15.20;94.00;;;;;;5002157;28;20445;-91
2022/11/02 10:13:25;;;;;;;2.13;1.93;;;15.30;94.30;;;;;;5004804;28;20427;-93
2022/11/02 10:15:59;;;;;;;3.83;2.50;;;15.30;93.60;;;;;;5014024;28;20683;-93
2022/11/02 10:18:27;;;;;;;1.70;1.60;;;15.40;93.50;;;;;;5016295;28;20420;-94
2022/11/02 10:20:57;;;;;;;1.00;0.90;;;15.50;93.30;;;;;;5011751;28;20436;-92
2022/11/02 10:23:57;;;;;;;1.40;1.30;;;15.50;93.30;;;;;;5014381;28;20452;-93
2022/11/02 10:26:31;;;;;;;1.40;1.30;;;15.70;92.60;;;;;;4972663;28;20519;-94
2022/11/02 10:29:01;;;;;;;1.03;0.97;;;15.60;91.90;;;;;;5025492;28;20413;-95
2022/11/02 10:31:31;;;;;;;1.00;0.90;;;15.70;91.70;;;;;;5008462;28;20429;-94
2022/11/02 10:34:10;;;;;;;1.30;1.10;;;15.80;92.10;;;;;;5006672;28;20508;-93
2022/11/02 10:36:53;;;;;;;3.13;1.73;;;15.70;90.80;;;;;;5010370;28;20440;-93
2022/11/02 10:39:44;;;;;;;0.90;0.80;;;15.80;90.70;;;;;;5012155;28;20416;-92
2022/11/02 10:42:33;;;;;;;1.30;1.20;;;15.90;90.50;;;;;;5008568;28;20412;-91
2022/11/02 10:45:41;;;;;;;1.30;1.20;;;16.00;89.90;;;;;;5009203;28;20455;-90
2022/11/02 10:48:39;;;;;;;2.50;1.47;;;15.90;89.40;;;;;;5012221;28;20423;-92
2022/11/02 10:51:13;;;;;;;1.23;1.13;;;15.90;89.00;;;;;;4977210;28;20649;-92
2022/11/02 10:53:41;;;;;;;1.00;0.90;;;16.00;89.70;;;;;;5023200;28;20447;-93
2022/11/02 10:56:28;;;;;;;1.10;1.00;;;16.10;89.00;;;;;;5006705;28;20433;-92
2022/11/02 10:58:58;;;;;;;1.00;0.90;;;16.00;89.30;;;;;;5012794;28;20416;-91
2022/11/02 11:01:24;;;;;;;1.00;0.97;;;16.00;89.30;;;;;;4999261;28;20447;-91
2022/11/02 11:04:01;;;;;;;1.63;1.53;;;16.10;89.80;;;;;;4995346;28;21044;-91
2022/11/02 11:06:41;;;;;;;1.37;1.27;;;16.40;89.60;;;;;;5030696;28;20562;-92
2022/11/02 11:09:16;;;;;;;1.57;1.47;;;16.60;88.60;;;;;;5011838;28;20915;-92
2022/11/02 11:12:11;;;;;;;1.30;1.20;;;16.80;87.80;;;;;;5003300;28;20442;-92
2022/11/02 11:14:46;;;;;;;5.47;1.60;;;16.70;87.30;;;;;;5013068;28;20423;-93
2022/11/02 11:17:17;;;;;;;6.53;1.83;;;16.70;86.80;;;;;;4998042;28;20417;-93
2022/11/02 11:19:51;;;;;;;1.53;1.33;;;16.60;86.00;;;;;;4994439;28;20456;-93
2022/11/02 11:22:37;;;;;;;4.70;1.10;;;16.60;86.60;;;;;;4996725;28;20412;-93
2022/11/02 11:25:23;;;;;;;5.60;1.57;;;16.60;86.40;;;;;;4994490;28;20469;-92
2022/11/02 11:27:53;;;;;;;8.30;1.00;;;16.70;86.70;;;;;;5002300;28;20413;-92
2022/11/02 11:30:37;;;;;;;1.57;1.43;;;16.90;86.60;;;;;;4998709;28;20535;-92
2022/11/02 11:33:26;;;;;;;1.37;1.30;;;17.10;85.90;;;;;;4994609;28;20443;-95
2022/11/02 11:35:52;;;;;;;1.07;0.87;;;17.20;84.60;;;;;;4996465;28;20413;-92
2022/11/02 11:38:22;;;;;;;4.40;1.30;;;17.30;85.00;;;;;;4998671;28;20499;-92
2022/11/02 11:40:54;;;;;;;1.03;1.03;;;17.40;84.30;;;;;;4997591;28;20197;-93
2022/11/02 11:43:24;;;;;;;0.97;0.93;;;17.40;83.90;;;;;;4994400;28;20448;-90
2022/11/02 11:46:02;;;;;;;1.00;0.90;;;17.20;84.20;;;;;;5013576;28;20460;-93
2022/11/02 11:48:50;;;;;;;2.23;2.03;;;16.90;84.60;;;;;;5003270;28;20405;-91
2022/11/02 11:51:28;;;;;;;2.17;1.57;;;16.70;85.30;;;;;;4998529;28;20441;-93
2022/11/02 11:54:27;;;;;;;0.97;0.87;;;16.50;85.20;;;;;;4998988;28;20463;-93
2022/11/02 11:56:55;;;;;;;1.00;0.90;;;16.20;86.00;;;;;;4997874;28;20436;-93
2022/11/02 11:59:50;;;;;;;0.90;0.80;;;16.10;85.50;;;;;;4999627;28;20412;-93
2022/11/02 12:02:26;;;;;;;2.40;1.40;;;16.20;86.40;;;;;;4997009;28;20511;-93
2022/11/02 12:05:17;;;;;;;1.23;1.10;;;16.40;85.10;;;;;;5002467;28;20460;-93
2022/11/02 12:08:02;;;;;;;3.27;2.20;;;16.60;84.00;;;;;;4998630;28;20417;-92
2022/11/02 12:10:58;;;;;;;7.37;2.07;;;16.60;83.70;;;;;;5007906;28;20977;-91
2022/11/02 12:13:58;;;;;;;10.43;1.40;;;16.80;83.70;;;;;;5010921;28;20851;-93
2022/11/02 12:16:56;;;;;;;0.97;0.90;;;16.90;83.20;;;;;;5008910;28;20420;-94
2022/11/02 12:19:47;;;;;;;1.60;1.50;;;17.10;84.20;;;;;;5014557;28;20990;-90
2022/11/02 12:22:23;;;;;;;1.90;1.90;;;17.30;82.80;;;;;;5015053;28;20412;-89
2022/11/02 12:25:00;;;;;;;1.83;1.50;;;17.40;83.50;;;;;;5012030;28;20552;-90
2022/11/02 12:27:56;;;;;;;1.00;0.90;;;17.20;82.80;;;;;;5006820;28;20420;-94
2022/11/02 12:30:57;;;;;;;1.20;1.10;;;17.20;83.00;;;;;;5018935;28;20472;-92
2022/11/02 12:33:49;;;;;;;35.03;3.37;;;17.20;83.00;;;;;;4936700;29;20415;-92
2022/11/02 12:36:43;;;;;;;1.30;1.20;;;17.20;83.00;;;;;;5004783;28;20914;-92
2022/11/02 12:39:26;;;;;;;1.13;1.03;;;17.40;83.30;;;;;;5013228;28;20451;-92
2022/11/02 12:42:02;;;;;;;1.40;1.37;;;17.50;82.50;;;;;;5004159;28;20795;-92
2022/11/02 12:44:47;;;;;;;1.23;1.13;;;17.50;82.20;;;;;;5014020;28;20490;-93
2022/11/02 12:47:44;;;;;;;1.20;1.10;;;17.40;81.90;;;;;;5007561;28;21043;-92
2022/11/02 12:50:32;;;;;;;5.20;1.43;;;16.90;82.40;;;;;;5012182;28;20523;-91
2022/11/02 12:53:03;;;;;;;3.03;1.33;;;16.80;82.80;;;;;;5033787;28;21097;-94
2022/11/02 12:55:33;;;;;;;1.30;1.23;;;17.00;83.30;;;;;;5014525;28;20419;-90
2022/11/02 12:58:05;;;;;;;1.97;1.40;;;16.90;82.50;;;;;;5009546;28;20419;-92
2022/11/02 13:00:32;;;;;;;1.33;1.27;;;16.80;83.50;;;;;;5007158;28;20437;-92
2022/11/02 13:03:21;;;;;;;1.83;1.20;;;16.80;83.10;;;;;;5006643;28;20425;-92
2022/11/02 13:06:05;;;;;;;3.23;1.20;;;16.80;83.40;;;;;;4999192;28;20499;-91
2022/11/02 13:08:36;;;;;;;1.10;1.00;;;16.80;83.30;;;;;;5010328;28;20428;-91
2022/11/02 13:11:18;;;;;;;2.67;1.50;;;17.00;83.00;;;;;;5014544;28;20440;-93
2022/11/02 13:13:50;;;;;;;2.30;2.10;;;17.10;82.50;;;;;;4998248;28;20433;-93
2022/11/02 13:16:44;;;;;;;1.13;1.03;;;17.20;81.80;;;;;;4998216;28;20433;-92
2022/11/02 13:19:32;;;;;;;1.20;1.10;;;17.40;81.70;;;;;;4993597;28;20524;-93
2022/11/02 13:21:59;;;;;;;14.03;1.93;;;17.50;81.30;;;;;;5006971;23;20542;-87
2022/11/02 13:25:18;;;;;;;2.70;1.83;;;17.60;80.90;;;;;;4990906;28;20519;-88
2022/11/02 13:27:56;;;;;;;1.83;1.60;;;17.60;80.20;;;;;;4875182;29;20422;-90
2022/11/02 13:30:24;;;;;;;1.13;1.03;;;17.60;79.70;;;;;;4985553;28;20440;-89
2022/11/02 13:33:19;;;;;;;2.93;2.33;;;17.60;80.10;;;;;;4990652;28;20432;-89
2022/11/02 13:35:52;;;;;;;2.70;1.63;;;17.70;80.00;;;;;;4989626;28;20412;-90
2022/11/02 13:42:09;;;;;;;1.83;1.33;;;17.20;81.20;;;;;;4980397;28;20447;-88
2022/11/02 13:44:59;;;;;;;1.20;1.10;;;17.50;81.30;;;;;;4990469;28;20460;-88
2022/11/02 13:47:49;;;;;;;1.10;1.00;;;17.80;80.00;;;;;;4990164;28;20916;-89
2022/11/02 13:50:30;;;;;;;0.93;0.87;;;17.40;79.70;;;;;;4990880;28;20421;-88